LIME/BGY METAR and TAF weather

Enter ICAO airport designator
Station Type Date Time Source
LIME METAR 2022/01/29 01:50 UTC NOAA

LIME 290150Z AUTO 03003KT 9999 NCD M00/M07 Q1029


Station Type Date Time Source
LIME Decoded METAR 2022/01/29 01:50 UTC NOAA

Bergamo / Orio Al Serio, Italy (LIME) 45-40N 009-42E 237M
Jan 28, 2022 - 08:50 PM EST / 2022.01.29 0150 UTC
Wind: from the NNE (030 degrees) at 3 MPH (3 KT):0
Visibility: greater than 7 mile(s):0
Temperature: 32 F (0 C)
Dew Point: 19 F (-7 C)
Relative Humidity: 59%
Pressure (altimeter): 30.39 in. Hg (1029 hPa)
ob: LIME 290150Z AUTO 03003KT 9999 NCD M00/M07 Q1029
cycle: 2

Station Type Date Time Source
LIME TAF 2022/01/28 18:22 UTC NOAA

TAF LIME 281700Z 2818/2918 VRB05KT 8000 FEW010

Example: see airport list